createdAt,value
2018-01-15T00:01:31.619Z,72.47
2018-01-15T00:04:00.869Z,72.60
2018-01-15T00:06:30.084Z,72.64
2018-01-15T00:08:59.311Z,72.84
2018-01-15T00:11:28.577Z,72.62
2018-01-15T00:13:57.783Z,72.49
2018-01-15T00:16:27.005Z,72.71
2018-01-15T00:18:56.218Z,72.66
2018-01-15T00:21:26.220Z,72.38
2018-01-15T00:23:56.302Z,72.83
2018-01-15T00:26:25.503Z,72.91
2018-01-15T00:28:54.699Z,72.98
2018-01-15T00:31:23.936Z,72.91
2018-01-15T00:33:53.175Z,72.84
2018-01-15T00:36:22.394Z,73.04
2018-01-15T00:38:51.628Z,72.98
2018-01-15T00:41:20.851Z,73.30
2018-01-15T00:43:50.849Z,73.81
2018-01-15T00:46:20.834Z,73.35
2018-01-15T00:48:50.039Z,73.43
2018-01-15T00:51:19.272Z,73.43
2018-01-15T00:53:50.078Z,73.25
2018-01-15T00:56:19.345Z,72.98
2018-01-15T00:58:48.606Z,72.81
2018-01-15T01:01:18.642Z,73.00
2018-01-15T01:03:48.000Z,72.97
2018-01-15T01:06:17.210Z,72.90
2018-01-15T01:08:46.451Z,72.80
2018-01-15T01:11:15.683Z,72.66
2018-01-15T01:13:44.913Z,72.76
2018-01-15T01:16:14.907Z,72.97
2018-01-15T01:18:44.335Z,72.78
2018-01-15T01:21:14.321Z,72.41
2018-01-15T01:23:43.556Z,72.80
2018-01-15T01:26:13.613Z,73.12
2018-01-15T01:28:42.821Z,73.04
2018-01-15T01:31:12.205Z,72.84
2018-01-15T01:33:41.401Z,72.96
2018-01-15T01:36:10.628Z,73.04
2018-01-15T01:38:39.972Z,72.78
2018-01-15T01:41:09.970Z,72.98
2018-01-15T01:43:40.629Z,72.94
2018-01-15T01:46:09.938Z,73.10
2018-01-15T01:48:39.215Z,73.15
2018-01-15T01:51:08.462Z,73.12
2018-01-15T01:53:37.674Z,72.87
2018-01-15T01:56:07.342Z,73.02
2018-01-15T01:58:36.612Z,73.00
2018-01-15T02:01:06.590Z,72.82
2018-01-15T02:03:35.866Z,73.07
2018-01-15T02:06:05.095Z,73.06
2018-01-15T02:08:34.363Z,73.15
2018-01-15T02:11:03.594Z,73.49
2018-01-15T02:13:32.869Z,73.25
2018-01-15T02:16:02.245Z,73.33
2018-01-15T02:18:31.447Z,73.33
2018-01-15T02:21:00.690Z,73.38
2018-01-15T02:23:30.779Z,73.33
2018-01-15T02:26:00.012Z,73.39
2018-01-15T02:28:29.251Z,73.50
2018-01-15T02:30:58.514Z,73.79
2018-01-15T02:33:27.747Z,73.79
2018-01-15T02:35:56.991Z,73.93
2018-01-15T02:38:26.202Z,73.87
2018-01-15T02:40:55.433Z,73.90
2018-01-15T02:43:24.643Z,74.25
2018-01-15T02:45:53.844Z,74.03
2018-01-15T02:48:23.068Z,74.40
2018-01-15T02:50:52.536Z,74.75
2018-01-15T02:53:21.757Z,74.72
2018-01-15T02:55:50.959Z,74.60
2018-01-15T02:58:20.239Z,74.54
2018-01-15T03:00:49.506Z,74.71
2018-01-15T03:03:19.494Z,74.56
2018-01-15T03:05:48.711Z,74.69
2018-01-15T03:08:17.998Z,74.71
2018-01-15T03:10:47.203Z,74.37
2018-01-15T03:13:16.412Z,74.56
2018-01-15T03:15:45.613Z,74.51
2018-01-15T03:18:15.582Z,74.43
2018-01-15T03:20:44.802Z,74.30
2018-01-15T03:23:14.016Z,74.24
2018-01-15T03:25:43.250Z,74.76
2018-01-15T03:28:12.470Z,74.67
2018-01-15T03:30:41.690Z,74.37
2018-01-15T03:33:10.898Z,74.49
2018-01-15T03:35:40.169Z,74.17
2018-01-15T03:38:09.361Z,74.34
2018-01-15T03:40:38.806Z,74.14
2018-01-15T03:43:08.793Z,74.23
2018-01-15T03:45:38.012Z,74.23
2018-01-15T03:48:07.235Z,74.39
2018-01-15T03:50:36.458Z,74.54
2018-01-15T03:53:05.699Z,74.46
2018-01-15T03:55:36.408Z,74.74
2018-01-15T03:58:05.640Z,74.86
2018-01-15T04:00:35.631Z,75.17
2018-01-15T04:03:06.471Z,74.94
2018-01-15T04:05:36.602Z,74.63
2018-01-15T04:08:05.848Z,74.41
2018-01-15T04:10:35.078Z,74.17
2018-01-15T04:13:04.333Z,74.22
2018-01-15T04:15:33.592Z,74.26
2018-01-15T04:18:02.788Z,74.36
2018-01-15T04:20:32.012Z,74.38
2018-01-15T04:23:02.010Z,74.36
2018-01-15T04:25:31.227Z,74.15
2018-01-15T04:28:00.570Z,73.95
2018-01-15T04:30:29.884Z,73.74
2018-01-15T04:32:59.091Z,73.98
2018-01-15T04:35:28.339Z,74.26
2018-01-15T04:37:57.562Z,74.27
2018-01-15T04:40:26.779Z,74.12
2018-01-15T04:42:56.266Z,74.10
2018-01-15T04:45:25.502Z,74.50
2018-01-15T04:47:54.706Z,74.89
2018-01-15T04:50:24.751Z,74.73
2018-01-15T04:52:53.951Z,74.96
2018-01-15T04:55:23.185Z,75.08
2018-01-15T04:57:52.447Z,75.50
2018-01-15T05:00:21.721Z,75.44
2018-01-15T05:02:50.927Z,75.38
2018-01-15T05:05:20.165Z,75.19
2018-01-15T05:07:49.373Z,75.39
2018-01-15T05:10:18.582Z,75.30
2018-01-15T05:12:47.826Z,75.10
2018-01-15T05:15:17.918Z,75.55
2018-01-15T05:17:47.142Z,75.41
2018-01-15T05:20:16.345Z,75.52
2018-01-15T05:22:45.827Z,75.51
2018-01-15T05:25:15.821Z,75.46
2018-01-15T05:27:46.714Z,75.79
2018-01-15T05:30:15.962Z,75.74
2018-01-15T05:32:45.181Z,75.91
2018-01-15T05:35:14.607Z,75.78
2018-01-15T05:37:43.814Z,75.83
2018-01-15T05:40:13.059Z,75.85
2018-01-15T05:42:42.251Z,75.74
2018-01-15T05:45:12.264Z,75.92
2018-01-15T05:47:41.466Z,75.97
2018-01-15T05:50:10.713Z,76.07
2018-01-15T05:52:39.904Z,75.68
2018-01-15T05:55:09.114Z,75.89
2018-01-15T05:57:38.352Z,76.09
2018-01-15T06:00:07.554Z,76.10
2018-01-15T06:02:36.763Z,76.10
2018-01-15T06:05:08.451Z,76.20
2018-01-15T06:07:37.678Z,76.58
2018-01-15T06:10:06.879Z,76.47
2018-01-15T06:12:36.223Z,76.46
2018-01-15T06:15:06.200Z,76.37
2018-01-15T06:17:35.427Z,76.65
2018-01-15T06:20:05.554Z,76.53
2018-01-15T06:22:35.595Z,76.81
2018-01-15T06:25:04.814Z,76.87
2018-01-15T06:27:34.052Z,76.63
2018-01-15T06:30:04.030Z,76.42
2018-01-15T06:32:33.245Z,76.41
2018-01-15T06:35:02.625Z,76.50
2018-01-15T06:37:31.817Z,76.53
2018-01-15T06:40:01.031Z,76.44
2018-01-15T06:42:31.172Z,76.43
2018-01-15T06:45:00.338Z,76.74
2018-01-15T06:47:29.567Z,77.24
2018-01-15T06:49:58.910Z,77.81
2018-01-15T06:52:28.086Z,78.23
2018-01-15T06:54:58.066Z,78.41
2018-01-15T06:57:27.262Z,78.63
2018-01-15T06:59:56.574Z,78.58
2018-01-15T07:02:25.793Z,78.59
2018-01-15T07:04:55.782Z,78.52
2018-01-15T07:07:25.181Z,78.40
2018-01-15T07:09:54.431Z,78.41
2018-01-15T07:12:23.745Z,78.27
2018-01-15T07:14:52.984Z,78.18
2018-01-15T07:17:23.680Z,77.99
2018-01-15T07:19:52.928Z,77.89
2018-01-15T07:22:22.116Z,77.95
2018-01-15T07:24:51.385Z,77.83
2018-01-15T07:27:20.578Z,78.03
2018-01-15T07:29:49.807Z,77.77
2018-01-15T07:32:19.027Z,77.71
2018-01-15T07:34:49.035Z,77.70
2018-01-15T07:37:18.999Z,77.40
2018-01-15T07:39:49.082Z,77.62
2018-01-15T07:42:19.092Z,77.66
2018-01-15T07:44:49.090Z,77.75
2018-01-15T07:47:18.334Z,78.14
2018-01-15T07:49:48.283Z,78.04
2018-01-15T07:52:17.513Z,77.87
2018-01-15T07:54:46.739Z,77.78
2018-01-15T07:57:15.954Z,77.88
2018-01-15T07:59:45.163Z,77.82
2018-01-15T08:02:14.405Z,77.50
2018-01-15T08:04:43.605Z,77.43
2018-01-15T08:07:12.992Z,77.43
2018-01-15T08:09:42.239Z,77.25
2018-01-15T08:12:11.453Z,77.21
2018-01-15T08:14:40.939Z,77.37
2018-01-15T08:17:10.143Z,77.56
2018-01-15T08:19:41.939Z,77.41
2018-01-15T08:22:11.151Z,77.42
2018-01-15T08:24:41.110Z,77.17
2018-01-15T08:27:10.314Z,77.03
2018-01-15T08:29:39.537Z,76.99
2018-01-15T08:32:08.779Z,76.80
2018-01-15T08:34:39.231Z,76.58
2018-01-15T08:37:08.541Z,76.42
2018-01-15T08:39:37.741Z,76.30
2018-01-15T08:42:06.972Z,76.07
2018-01-15T08:44:36.175Z,75.93
2018-01-15T08:47:05.587Z,76.03
2018-01-15T08:49:34.961Z,76.13
2018-01-15T08:52:04.161Z,75.80
2018-01-15T08:54:33.406Z,75.64
2018-01-15T08:57:03.419Z,75.26
2018-01-15T08:59:32.627Z,75.48
2018-01-15T09:02:01.838Z,75.21
2018-01-15T09:04:31.074Z,75.32
2018-01-15T09:07:00.310Z,74.97
2018-01-15T09:09:30.281Z,75.12
2018-01-15T09:11:59.481Z,75.43
2018-01-15T09:14:28.754Z,75.02
2018-01-15T09:16:57.980Z,75.21
2018-01-15T09:19:27.201Z,75.12
2018-01-15T09:21:56.417Z,75.03
2018-01-15T09:24:25.641Z,75.03
2018-01-15T09:26:55.682Z,74.69
2018-01-15T09:29:24.882Z,74.61
2018-01-15T09:31:54.118Z,74.33
2018-01-15T09:34:24.136Z,74.14
2018-01-15T09:36:53.351Z,73.91
2018-01-15T09:39:22.557Z,73.51
2018-01-15T09:41:51.771Z,73.90
2018-01-15T09:44:20.990Z,73.76
2018-01-15T09:46:50.180Z,73.71
2018-01-15T09:49:19.425Z,73.63
2018-01-15T09:51:49.381Z,73.39
2018-01-15T09:54:18.594Z,73.20
2018-01-15T09:56:47.777Z,73.49
2018-01-15T09:59:17.051Z,73.12
2018-01-15T10:01:46.241Z,73.19
2018-01-15T10:04:15.502Z,73.02
2018-01-15T10:06:44.710Z,72.84
2018-01-15T10:09:14.924Z,73.01
2018-01-15T10:11:45.004Z,72.86
2018-01-15T10:14:14.186Z,72.48
2018-01-15T10:16:43.423Z,72.26
2018-01-15T10:19:12.621Z,72.02
2018-01-15T10:21:43.323Z,72.16
2018-01-15T10:24:12.638Z,71.81
2018-01-15T10:26:41.822Z,71.77
2018-01-15T10:29:11.107Z,71.54
2018-01-15T10:31:40.411Z,71.58
2018-01-15T10:34:09.611Z,71.64
2018-01-15T10:36:38.837Z,71.50
2018-01-15T10:39:08.076Z,71.62
2018-01-15T10:41:37.274Z,71.63
2018-01-15T10:44:06.515Z,71.58
2018-01-15T10:46:35.730Z,71.69
2018-01-15T10:49:05.016Z,71.54
2018-01-15T10:51:34.216Z,71.68
2018-01-15T10:54:03.456Z,72.11
2018-01-15T10:56:33.444Z,72.34
2018-01-15T10:59:02.625Z,72.40
2018-01-15T11:01:31.865Z,72.36
2018-01-15T11:04:01.100Z,72.38
2018-01-15T11:06:30.378Z,72.48
2018-01-15T11:09:00.324Z,72.55
2018-01-15T11:11:29.591Z,72.77
2018-01-15T11:13:58.802Z,72.72
2018-01-15T11:16:28.035Z,72.57
2018-01-15T11:18:57.231Z,72.62
2018-01-15T11:21:26.428Z,72.20
2018-01-15T11:23:55.668Z,72.14
2018-01-15T11:26:25.119Z,71.70
2018-01-15T11:28:54.378Z,71.68
2018-01-15T11:31:23.618Z,71.65
2018-01-15T11:33:52.873Z,71.75
2018-01-15T11:36:22.062Z,72.00
2018-01-15T11:38:52.075Z,71.87
2018-01-15T11:41:22.940Z,72.02
2018-01-15T11:43:52.172Z,72.45
2018-01-15T11:46:21.368Z,72.57
2018-01-15T11:48:50.581Z,72.52
2018-01-15T11:51:19.795Z,71.91
2018-01-15T11:53:49.774Z,72.20
2018-01-15T11:56:19.033Z,72.31
2018-01-15T11:58:48.278Z,72.26
2018-01-15T12:01:17.486Z,72.15
2018-01-15T12:03:46.717Z,72.26
2018-01-15T12:06:16.698Z,72.04
2018-01-15T12:08:45.924Z,72.30
2018-01-15T12:11:15.152Z,72.20
2018-01-15T12:13:44.374Z,72.20
2018-01-15T12:16:13.785Z,72.40
2018-01-15T12:18:43.035Z,72.61
2018-01-15T12:21:12.379Z,72.71
2018-01-15T12:23:41.556Z,72.96
2018-01-15T12:26:10.782Z,73.34
2018-01-15T12:28:41.484Z,73.67
2018-01-15T12:31:10.683Z,73.87
2018-01-15T12:33:40.538Z,74.12
2018-01-15T12:36:09.763Z,74.33
2018-01-15T12:38:39.854Z,74.49
2018-01-15T12:41:09.904Z,74.97
2018-01-15T12:43:40.520Z,74.83
2018-01-15T12:46:10.493Z,74.74
2018-01-15T12:48:39.706Z,75.24
2018-01-15T12:51:09.710Z,75.15
2018-01-15T12:53:39.354Z,74.97
2018-01-15T12:56:09.317Z,75.00
2018-01-15T12:58:38.531Z,75.11
2018-01-15T13:01:09.245Z,74.95
2018-01-15T13:03:39.087Z,74.81
2018-01-15T13:06:08.302Z,74.85
2018-01-15T13:22:08.334Z,74.03
2018-01-15T13:24:37.591Z,74.10
2018-01-15T13:27:06.796Z,73.63
2018-01-15T13:29:35.983Z,73.68
2018-01-15T13:32:05.177Z,73.64
2018-01-15T13:34:35.199Z,73.96
2018-01-15T13:37:04.422Z,73.69
2018-01-15T13:39:33.650Z,73.75
2018-01-15T13:42:02.869Z,73.84
2018-01-15T13:44:32.078Z,73.87
2018-01-15T13:47:01.293Z,73.69
2018-01-15T13:49:30.507Z,73.77
2018-01-15T13:52:00.573Z,73.80
2018-01-15T13:54:29.761Z,73.59
2018-01-15T13:56:58.990Z,73.78
2018-01-15T13:59:28.249Z,73.95
2018-01-15T14:01:58.220Z,74.02
2018-01-15T14:04:28.259Z,73.75
2018-01-15T14:06:57.495Z,74.16
2018-01-15T14:09:26.731Z,74.39
2018-01-15T14:11:56.726Z,74.79
2018-01-15T14:14:25.938Z,75.18
2018-01-15T14:16:55.969Z,75.57
2018-01-15T14:19:25.215Z,75.98
2018-01-15T14:21:54.454Z,76.45
2018-01-15T14:24:24.435Z,76.38
2018-01-15T14:26:53.650Z,76.94
2018-01-15T14:29:22.878Z,77.93
2018-01-15T14:31:52.835Z,78.88
2018-01-15T14:34:22.070Z,79.96
2018-01-15T14:36:51.265Z,80.42
2018-01-15T14:39:20.482Z,81.66
2018-01-15T14:41:50.440Z,81.91
2018-01-15T14:44:19.774Z,82.71
2018-01-15T14:46:48.947Z,82.54
2018-01-15T14:49:18.409Z,83.47
2018-01-15T14:51:48.521Z,83.27
2018-01-15T14:54:17.794Z,83.40
2018-01-15T14:56:47.047Z,83.76
2018-01-15T14:59:16.274Z,83.79
2018-01-15T15:01:45.467Z,83.95
2018-01-15T15:04:14.735Z,83.14
2018-01-15T15:06:43.942Z,83.51
2018-01-15T15:09:13.148Z,83.52
2018-01-15T15:11:42.363Z,83.28
2018-01-15T15:14:11.594Z,83.09
2018-01-15T15:16:41.595Z,83.32
2018-01-15T15:19:10.850Z,82.98
2018-01-15T15:21:40.075Z,82.96
2018-01-15T15:24:09.280Z,83.12
2018-01-15T15:26:38.527Z,83.28
2018-01-15T15:29:07.725Z,83.24
2018-01-15T15:31:37.021Z,83.62
2018-01-15T15:34:07.041Z,83.47
2018-01-15T15:36:36.251Z,83.77
2018-01-15T15:39:05.454Z,83.58
2018-01-15T15:41:35.317Z,83.96
2018-01-15T15:44:05.364Z,83.76
2018-01-15T15:46:34.728Z,84.03
2018-01-15T15:49:04.194Z,83.96
2018-01-15T15:51:33.509Z,84.42
2018-01-15T15:54:02.933Z,84.35
2018-01-15T15:56:32.206Z,84.62
2018-01-15T15:59:01.380Z,84.83
2018-01-15T16:01:30.568Z,84.80
2018-01-15T16:03:59.808Z,84.62
2018-01-15T16:06:29.019Z,84.94
2018-01-15T16:08:58.224Z,84.58
2018-01-15T16:11:28.226Z,84.48
2018-01-15T16:13:57.587Z,84.46
2018-01-15T16:16:27.612Z,84.32
2018-01-15T16:18:56.819Z,84.44
2018-01-15T16:21:26.006Z,84.37
2018-01-15T16:23:55.311Z,84.18
2018-01-15T16:26:24.538Z,83.79
2018-01-15T16:28:53.815Z,84.07
2018-01-15T16:31:23.075Z,83.19
2018-01-15T16:33:52.239Z,83.47
2018-01-15T16:36:22.247Z,83.30
2018-01-15T16:38:51.508Z,83.18
2018-01-15T16:41:20.755Z,82.65
2018-01-15T16:43:49.954Z,82.67
2018-01-15T16:46:19.214Z,82.50
2018-01-15T16:48:48.421Z,82.59
2018-01-15T16:51:17.676Z,82.38
2018-01-15T16:53:46.934Z,82.25
2018-01-15T16:56:16.142Z,82.59
2018-01-15T16:58:46.123Z,82.48
2018-01-15T17:01:15.370Z,82.55
2018-01-15T17:03:45.336Z,82.80
2018-01-15T17:06:14.701Z,82.79
2018-01-15T17:08:43.942Z,82.55
2018-01-15T17:11:13.292Z,82.60
2018-01-15T17:13:43.467Z,82.76
2018-01-15T17:16:12.894Z,82.81
2018-01-15T17:18:42.178Z,82.96
2018-01-15T17:21:11.470Z,83.21
2018-01-15T17:23:41.508Z,84.00
2018-01-15T17:26:10.863Z,84.53
2018-01-15T17:28:40.086Z,84.95
2018-01-15T17:31:09.281Z,85.61
2018-01-15T17:33:38.677Z,86.33
2018-01-15T17:36:08.575Z,86.42
2018-01-15T17:38:37.833Z,86.56
2018-01-15T17:41:07.893Z,86.54
2018-01-15T17:43:37.162Z,86.90
2018-01-15T17:46:07.138Z,86.66
2018-01-15T17:48:36.351Z,86.98
2018-01-15T17:51:06.320Z,86.88
2018-01-15T17:53:35.606Z,87.00
2018-01-15T17:56:04.840Z,87.06
2018-01-15T17:58:34.055Z,87.40
2018-01-15T18:01:03.275Z,87.29
2018-01-15T18:03:32.570Z,87.31
2018-01-15T18:06:02.557Z,87.31
2018-01-15T18:08:31.827Z,87.78
2018-01-15T18:11:01.084Z,87.89
2018-01-15T18:13:31.127Z,87.83
2018-01-15T18:16:01.088Z,87.88
2018-01-15T18:18:32.024Z,88.37
2018-01-15T18:21:02.067Z,88.75
2018-01-15T18:23:32.195Z,88.26
2018-01-15T18:26:02.266Z,88.17
2018-01-15T18:28:31.458Z,88.26
2018-01-15T18:31:01.725Z,88.71
2018-01-15T18:33:30.952Z,88.48
2018-01-15T18:36:00.230Z,88.67
2018-01-15T18:38:30.968Z,88.96
2018-01-15T18:41:00.223Z,88.96
2018-01-15T18:43:29.426Z,89.02
2018-01-15T18:45:58.672Z,89.18
2018-01-15T18:48:28.618Z,89.36
2018-01-15T18:50:57.842Z,89.34
2018-01-15T18:53:27.791Z,89.60
2018-01-15T18:55:57.057Z,89.37
2018-01-15T18:58:26.344Z,89.94
2018-01-15T19:00:55.612Z,89.43
2018-01-15T19:03:24.922Z,89.35
2018-01-15T19:05:54.147Z,88.78
2018-01-15T19:08:23.410Z,89.55
2018-01-15T19:10:53.430Z,89.31
2018-01-15T19:13:22.681Z,89.17
2018-01-15T19:15:52.652Z,88.90
2018-01-15T19:18:23.360Z,89.03
2018-01-15T19:20:54.363Z,89.14
2018-01-15T19:23:24.393Z,88.84
2018-01-15T19:25:54.388Z,89.15
2018-01-15T19:28:23.782Z,89.10
2018-01-15T19:30:53.021Z,89.32
2018-01-15T19:33:22.219Z,89.42
2018-01-15T19:49:26.636Z,89.06
2018-01-15T19:52:01.356Z,89.42
2018-01-15T19:54:35.919Z,89.17
2018-01-15T19:57:10.677Z,89.06
2018-01-15T19:59:45.641Z,89.04
2018-01-15T20:02:20.215Z,89.23
2018-01-15T20:04:54.704Z,89.23
2018-01-15T20:07:29.233Z,89.50
2018-01-15T20:10:03.850Z,89.37
2018-01-15T20:12:33.059Z,89.15
2018-01-15T20:15:02.286Z,89.39
2018-01-15T20:17:32.290Z,89.10
2018-01-15T20:20:01.518Z,89.27
2018-01-15T20:22:31.518Z,89.30
2018-01-15T20:25:00.702Z,89.14
2018-01-15T20:27:31.488Z,89.37
2018-01-15T20:30:00.700Z,89.13
2018-01-15T20:32:29.938Z,89.35
2018-01-15T20:35:00.044Z,89.24
2018-01-15T20:37:29.344Z,89.51
2018-01-15T20:39:58.602Z,89.36
2018-01-15T20:42:27.865Z,89.05
2018-01-15T20:44:58.545Z,88.99
2018-01-15T20:47:27.770Z,88.81
2018-01-15T20:49:56.991Z,89.17
2018-01-15T20:52:26.983Z,89.39
2018-01-15T20:54:56.167Z,89.07
2018-01-15T20:57:27.076Z,88.90
2018-01-15T20:59:56.303Z,89.08
2018-01-15T21:02:25.566Z,89.02
2018-01-15T21:04:55.680Z,88.78
2018-01-15T21:07:25.637Z,88.76
2018-01-15T21:09:54.830Z,88.33
2018-01-15T21:12:24.057Z,88.04
2018-01-15T21:14:53.277Z,87.88
2018-01-15T21:17:23.226Z,87.86
2018-01-15T21:19:52.456Z,87.38
2018-01-15T21:22:21.697Z,87.10
2018-01-15T21:24:50.915Z,86.69
2018-01-15T21:27:20.127Z,86.87
2018-01-15T21:29:49.419Z,87.05
2018-01-15T21:32:18.623Z,87.06
2018-01-15T21:34:47.811Z,87.50
2018-01-15T21:37:17.050Z,87.45
2018-01-15T21:39:46.235Z,87.81
2018-01-15T21:42:15.521Z,88.20
2018-01-15T21:44:44.707Z,88.02
2018-01-15T21:47:13.922Z,88.28
2018-01-15T21:49:43.121Z,88.61
2018-01-15T21:52:13.207Z,88.89
2018-01-15T21:54:42.425Z,89.15
2018-01-15T21:57:11.633Z,89.38
2018-01-15T21:59:40.833Z,89.68
2018-01-15T22:02:10.172Z,89.87
2018-01-15T22:04:40.123Z,90.05
2018-01-15T22:07:09.326Z,90.31
2018-01-15T22:09:38.522Z,90.65
2018-01-15T22:12:07.862Z,90.56
2018-01-15T22:14:37.044Z,90.85
2018-01-15T22:17:06.254Z,90.96
2018-01-15T22:19:35.498Z,90.94
2018-01-15T22:22:04.779Z,91.00
2018-01-15T22:24:34.175Z,91.27
2018-01-15T22:27:04.163Z,91.45
2018-01-15T22:29:33.388Z,91.44
2018-01-15T22:32:03.354Z,91.73
2018-01-15T22:34:32.586Z,91.80
2018-01-15T22:37:02.678Z,91.83
2018-01-15T22:39:32.229Z,91.86
2018-01-15T22:42:01.608Z,91.65
2018-01-15T22:44:30.878Z,91.46
2018-01-15T22:47:00.698Z,91.42
2018-01-15T22:49:29.978Z,91.38
2018-01-15T22:51:59.198Z,91.15
2018-01-15T22:54:28.451Z,90.67
2018-01-15T22:56:58.506Z,90.64
2018-01-15T22:59:27.943Z,90.92
2018-01-15T23:01:57.157Z,90.92
2018-01-15T23:04:26.380Z,91.05
2018-01-15T23:06:55.603Z,90.98
2018-01-15T23:09:24.844Z,90.92
2018-01-15T23:11:54.039Z,91.04
2018-01-15T23:14:23.886Z,91.03
2018-01-15T23:16:53.103Z,90.95
2018-01-15T23:19:22.379Z,90.97
2018-01-15T23:21:51.810Z,91.00
2018-01-15T23:24:21.175Z,90.90
2018-01-15T23:26:50.405Z,90.82
2018-01-15T23:29:19.602Z,90.64
2018-01-15T23:31:48.856Z,90.56
2018-01-15T23:34:18.044Z,90.42
2018-01-15T23:36:47.254Z,90.60
2018-01-15T23:39:16.469Z,90.40
2018-01-15T23:41:45.686Z,90.24
2018-01-15T23:44:15.050Z,90.21
2018-01-15T23:46:44.362Z,90.30
2018-01-15T23:49:14.334Z,90.25
2018-01-15T23:51:43.660Z,90.07
2018-01-15T23:54:31.183Z,89.94
2018-01-15T23:57:01.154Z,89.83
2018-01-15T23:59:30.498Z,89.84
